createdAt,value
2022-08-31T00:00:17.131Z,101640.63
2022-08-31T00:03:02.828Z,101641.22
2022-08-31T00:05:31.434Z,101641.97
2022-08-31T00:08:03.932Z,101646.78
2022-08-31T00:10:37.126Z,101642.50
2022-08-31T00:13:07.120Z,101640.94
2022-08-31T00:15:38.547Z,101639.78
2022-08-31T00:18:06.798Z,101643.72
2022-08-31T00:20:35.131Z,101640.44
2022-08-31T00:23:06.181Z,101646.38
2022-08-31T00:25:35.005Z,101644.75
2022-08-31T00:28:03.462Z,101637.88
2022-08-31T00:30:34.267Z,101635.72
2022-08-31T00:33:02.544Z,101644.19
2022-08-31T00:35:32.828Z,101624.72
2022-08-31T00:38:01.444Z,101642.28
2022-08-31T00:40:30.959Z,101635.41
2022-08-31T00:43:03.186Z,101619.38
2022-08-31T00:45:33.699Z,101631.72
2022-08-31T00:48:05.025Z,101632.06
2022-08-31T00:50:33.200Z,101631.78
2022-08-31T00:53:02.861Z,101628.25
2022-08-31T00:55:37.279Z,101628.06
2022-08-31T00:58:11.880Z,101623.66
2022-08-31T01:00:45.090Z,101622.63
2022-08-31T01:03:15.173Z,101615.47
2022-08-31T01:05:45.791Z,101627.88
2022-08-31T01:08:14.714Z,101620.25
2022-08-31T01:10:46.507Z,101613.75
2022-08-31T01:13:16.728Z,101610.31
2022-08-31T01:15:51.337Z,101618.53
2022-08-31T01:18:26.743Z,101625.78
2022-08-31T01:21:01.294Z,101627.53
2022-08-31T01:23:34.959Z,101621.44
2022-08-31T01:26:08.545Z,101618.75
2022-08-31T01:28:37.080Z,101617.72
2022-08-31T01:31:10.255Z,101618.50
2022-08-31T01:33:40.752Z,101622.41
2022-08-31T01:36:16.261Z,101621.38
2022-08-31T01:38:46.123Z,101627.81
2022-08-31T01:41:20.880Z,101625.13
2022-08-31T01:43:52.995Z,101626.78
2022-08-31T01:46:22.059Z,101622.28
2022-08-31T01:48:52.328Z,101622.00
2022-08-31T01:51:22.936Z,101619.97
2022-08-31T01:53:54.876Z,101621.16
2022-08-31T01:56:25.443Z,101633.38
2022-08-31T01:58:57.677Z,101628.16
2022-08-31T02:01:56.845Z,101630.00
2022-08-31T02:04:28.890Z,101637.31
2022-08-31T02:06:59.974Z,101641.09
2022-08-31T02:09:31.188Z,101637.25
2022-08-31T02:12:05.301Z,101639.34
2022-08-31T02:14:34.159Z,101641.47
2022-08-31T02:17:05.359Z,101641.94
2022-08-31T02:19:36.939Z,101628.13
2022-08-31T02:22:08.398Z,101641.38
2022-08-31T02:24:37.919Z,101641.69
2022-08-31T02:27:06.556Z,101639.75
2022-08-31T02:29:36.409Z,101643.66
2022-08-31T02:32:04.924Z,101645.75
2022-08-31T02:34:32.824Z,101642.94
2022-08-31T02:37:03.416Z,101636.56
2022-08-31T02:39:34.920Z,101633.84
2022-08-31T02:42:08.312Z,101636.25
2022-08-31T02:44:36.416Z,101637.16
2022-08-31T02:47:13.278Z,101644.88
2022-08-31T02:49:46.676Z,101644.16
2022-08-31T02:52:20.723Z,101644.44
2022-08-31T02:54:48.711Z,101645.16
2022-08-31T02:57:39.047Z,101641.75
2022-08-31T03:00:08.793Z,101642.34
2022-08-31T03:02:37.338Z,101645.78
2022-08-31T03:05:08.061Z,101634.47
2022-08-31T03:07:39.341Z,101646.13
2022-08-31T03:10:10.258Z,101636.72
2022-08-31T03:12:39.596Z,101642.22
2022-08-31T03:15:09.291Z,101633.31
2022-08-31T03:17:37.280Z,101635.72
2022-08-31T03:20:07.286Z,101627.81
2022-08-31T03:22:35.746Z,101627.06
2022-08-31T03:25:08.550Z,101620.06
2022-08-31T03:27:37.220Z,101615.47
2022-08-31T03:30:09.474Z,101617.56
2022-08-31T03:32:40.150Z,101615.34
2022-08-31T03:35:11.034Z,101620.13
2022-08-31T03:37:40.610Z,101627.41
2022-08-31T03:40:10.167Z,101623.50
2022-08-31T03:42:39.580Z,101619.06
2022-08-31T03:45:17.154Z,101618.63
2022-08-31T03:47:45.680Z,101623.41
2022-08-31T03:50:16.080Z,101623.41
2022-08-31T03:52:55.562Z,101627.13
2022-08-31T03:55:28.582Z,101628.59
2022-08-31T03:57:56.790Z,101629.94
2022-08-31T04:00:26.946Z,101631.44
2022-08-31T04:03:02.027Z,101614.19
2022-08-31T04:05:35.306Z,101623.72
2022-08-31T04:08:09.011Z,101626.53
2022-08-31T04:10:48.118Z,101633.84
2022-08-31T04:13:34.582Z,101649.75
2022-08-31T04:16:24.013Z,101639.66
2022-08-31T04:19:11.449Z,101646.03
2022-08-31T04:21:50.082Z,101650.06
2022-08-31T04:24:43.282Z,101655.25
2022-08-31T04:27:14.317Z,101663.47
2022-08-31T04:29:42.288Z,101661.81
2022-08-31T04:32:11.817Z,101663.47
2022-08-31T04:34:39.866Z,101660.94
2022-08-31T04:37:10.387Z,101663.16
2022-08-31T04:39:49.430Z,101672.09
2022-08-31T04:42:18.998Z,101673.31
2022-08-31T04:44:55.351Z,101664.22
2022-08-31T04:47:36.771Z,101683.25
2022-08-31T04:50:07.460Z,101678.34
2022-08-31T04:52:36.185Z,101683.53
2022-08-31T04:55:05.048Z,101676.84
2022-08-31T04:57:35.475Z,101679.38
2022-08-31T05:00:05.198Z,101677.75
2022-08-31T05:03:03.397Z,101674.78
2022-08-31T05:05:31.347Z,101686.09
2022-08-31T05:07:59.363Z,101682.81
2022-08-31T05:10:27.925Z,101679.09
2022-08-31T05:12:59.268Z,101654.22
2022-08-31T05:15:27.624Z,101676.13
2022-08-31T05:17:55.861Z,101686.06
2022-08-31T05:20:27.656Z,101687.75
2022-08-31T05:22:56.552Z,101689.22
2022-08-31T05:25:24.478Z,101687.84
2022-08-31T05:27:53.437Z,101684.28
2022-08-31T05:30:22.504Z,101695.31
2022-08-31T05:33:03.059Z,101696.94
2022-08-31T05:35:32.959Z,101699.16
2022-08-31T05:38:01.205Z,101699.16
2022-08-31T05:40:29.344Z,101679.53
2022-08-31T05:42:59.477Z,101702.50
2022-08-31T05:45:30.227Z,101689.09
2022-08-31T05:47:58.401Z,101706.66
2022-08-31T05:50:26.479Z,101705.03
2022-08-31T05:52:56.308Z,101707.53
2022-08-31T05:55:24.976Z,101705.47
2022-08-31T05:57:55.316Z,101704.69
2022-08-31T06:00:26.581Z,101708.41
2022-08-31T06:03:06.704Z,101704.38
2022-08-31T06:05:35.885Z,101716.25
2022-08-31T06:08:05.622Z,101717.25
2022-08-31T06:10:34.783Z,101718.19
2022-08-31T06:13:16.762Z,101718.97
2022-08-31T06:15:50.745Z,101725.84
2022-08-31T06:18:20.832Z,101723.69
2022-08-31T06:21:02.244Z,101729.28
2022-08-31T06:23:31.740Z,101729.38
2022-08-31T06:26:05.218Z,101727.25
2022-08-31T06:28:33.574Z,101733.22
2022-08-31T06:31:03.429Z,101732.50
2022-08-31T06:33:32.847Z,101735.97
2022-08-31T06:36:12.574Z,101737.72
2022-08-31T06:39:19.860Z,101732.59
2022-08-31T06:42:13.858Z,101733.16
2022-08-31T06:45:00.290Z,101738.16
2022-08-31T06:47:47.405Z,101732.94
2022-08-31T06:50:17.939Z,101743.78
2022-08-31T06:52:48.507Z,101736.31
2022-08-31T06:55:36.892Z,101736.75
2022-08-31T06:58:23.831Z,101739.06
2022-08-31T07:01:16.113Z,101747.97
2022-08-31T07:04:02.860Z,101744.16
2022-08-31T07:06:33.052Z,101747.44
2022-08-31T07:09:07.541Z,101744.16
2022-08-31T07:11:44.244Z,101743.44
2022-08-31T07:14:15.598Z,101746.97
2022-08-31T07:16:45.634Z,101757.81
2022-08-31T07:19:15.405Z,101747.16
2022-08-31T07:21:46.847Z,101746.53
2022-08-31T07:24:19.210Z,101762.41
2022-08-31T07:26:53.200Z,101754.25
2022-08-31T07:29:42.812Z,101748.34
2022-08-31T07:32:17.603Z,101762.69
2022-08-31T07:34:53.345Z,101738.16
2022-08-31T07:38:04.251Z,101735.22
2022-08-31T07:40:51.509Z,101754.13
2022-08-31T07:43:22.576Z,101751.00
2022-08-31T07:45:52.175Z,101760.81
2022-08-31T07:48:29.487Z,101748.59
2022-08-31T07:51:14.572Z,101742.13
2022-08-31T07:53:52.571Z,101751.66
2022-08-31T07:56:43.481Z,101746.88
2022-08-31T07:59:17.386Z,101747.88
2022-08-31T08:01:48.475Z,101751.53
2022-08-31T08:04:21.805Z,101759.34
2022-08-31T08:07:33.815Z,101762.56
2022-08-31T08:10:42.404Z,101772.00
2022-08-31T08:13:33.308Z,101773.28
2022-08-31T08:16:11.207Z,101773.72
2022-08-31T08:18:58.112Z,101773.84
2022-08-31T08:21:29.813Z,101763.66
2022-08-31T08:24:06.277Z,101772.81
2022-08-31T08:26:54.397Z,101777.22
2022-08-31T08:29:38.573Z,101772.44
2022-08-31T08:32:14.236Z,101776.03
2022-08-31T08:34:46.156Z,101772.59
2022-08-31T08:37:15.120Z,101782.44
2022-08-31T08:39:45.609Z,101771.75
2022-08-31T08:42:20.894Z,101776.06
2022-08-31T08:44:52.199Z,101767.94
2022-08-31T08:47:28.616Z,101779.84
2022-08-31T08:50:09.135Z,101788.13
2022-08-31T08:52:42.891Z,101770.81
2022-08-31T08:55:16.210Z,101781.75
2022-08-31T08:57:49.562Z,101783.03
2022-08-31T09:00:20.654Z,101776.03
2022-08-31T09:03:02.535Z,101747.13
2022-08-31T09:06:11.139Z,101776.16
2022-08-31T09:09:08.798Z,101773.59
2022-08-31T09:11:53.123Z,101777.28
2022-08-31T09:14:39.758Z,101768.34
2022-08-31T09:17:18.514Z,101775.22
2022-08-31T09:20:05.772Z,101773.44
2022-08-31T09:22:46.857Z,101773.00
2022-08-31T09:25:19.116Z,101770.91
2022-08-31T09:28:04.192Z,101777.84
2022-08-31T09:30:52.897Z,101766.47
2022-08-31T09:33:23.494Z,101779.69
2022-08-31T09:35:56.855Z,101767.25
2022-08-31T09:38:30.058Z,101772.91
2022-08-31T09:40:59.202Z,101764.72
2022-08-31T09:43:38.620Z,101777.66
2022-08-31T09:46:12.762Z,101767.44
2022-08-31T09:48:45.352Z,101764.72
2022-08-31T09:51:23.860Z,101765.22
2022-08-31T09:54:22.857Z,101759.91
2022-08-31T09:56:56.202Z,101760.88
2022-08-31T09:59:37.290Z,101763.84
2022-08-31T10:02:09.951Z,101756.88
2022-08-31T10:04:52.326Z,101758.47
2022-08-31T10:07:37.733Z,101749.50
2022-08-31T10:10:28.181Z,101756.13
2022-08-31T10:13:06.379Z,101759.81
2022-08-31T10:15:41.238Z,101760.34
2022-08-31T10:18:15.472Z,101760.47
2022-08-31T10:20:46.594Z,101757.81
2022-08-31T10:23:27.263Z,101762.13
2022-08-31T10:26:03.447Z,101747.06
2022-08-31T10:28:37.794Z,101740.84
2022-08-31T10:31:21.707Z,101745.44
2022-08-31T10:34:14.174Z,101744.97
2022-08-31T10:36:43.690Z,101731.34
2022-08-31T10:39:25.098Z,101745.91
2022-08-31T10:41:56.991Z,101744.22
2022-08-31T10:44:36.415Z,101731.94
2022-08-31T10:47:05.538Z,101736.78
2022-08-31T10:49:35.387Z,101737.88
2022-08-31T10:52:10.507Z,101740.91
2022-08-31T10:54:48.928Z,101736.91
2022-08-31T10:57:32.229Z,101731.91
2022-08-31T11:00:06.540Z,101707.13
2022-08-31T11:02:48.753Z,101732.91
2022-08-31T11:05:33.494Z,101727.34
2022-08-31T11:08:25.615Z,101721.59
2022-08-31T11:10:56.684Z,101725.16
2022-08-31T11:13:57.119Z,101717.38
2022-08-31T11:16:45.540Z,101721.72
2022-08-31T11:19:36.216Z,101721.25
2022-08-31T11:22:37.477Z,101716.88
2022-08-31T11:25:47.491Z,101706.16
2022-08-31T11:28:32.171Z,101700.28
2022-08-31T11:31:02.384Z,101704.63
2022-08-31T11:33:33.924Z,101693.53
2022-08-31T11:36:08.755Z,101694.94
2022-08-31T11:38:54.469Z,101692.09
2022-08-31T11:41:39.111Z,101692.75
2022-08-31T11:44:10.265Z,101689.28
2022-08-31T11:47:05.103Z,101694.41
2022-08-31T11:49:42.210Z,101680.84
2022-08-31T11:52:43.217Z,101686.25
2022-08-31T11:55:27.047Z,101671.66
2022-08-31T11:58:33.711Z,101675.22
2022-08-31T12:01:34.307Z,101670.03
2022-08-31T12:04:04.467Z,101667.66
2022-08-31T12:07:08.791Z,101669.13
2022-08-31T12:10:04.538Z,101676.16
2022-08-31T12:12:48.363Z,101668.25
2022-08-31T12:15:22.011Z,101669.53
2022-08-31T12:18:05.802Z,101666.50
2022-08-31T12:21:11.208Z,101671.75
2022-08-31T12:23:52.919Z,101662.53
2022-08-31T12:26:55.194Z,101663.09
2022-08-31T12:29:26.806Z,101654.91
2022-08-31T12:32:21.055Z,101631.34
2022-08-31T12:34:57.781Z,101642.09
2022-08-31T12:37:28.209Z,101642.81
2022-08-31T12:40:18.779Z,101642.47
2022-08-31T12:43:00.238Z,101644.63
2022-08-31T12:46:20.720Z,101643.47
2022-08-31T12:49:10.388Z,101643.19
2022-08-31T12:51:47.051Z,101647.19
2022-08-31T12:54:39.665Z,101646.13
2022-08-31T12:57:16.594Z,101643.47
2022-08-31T13:00:03.188Z,101640.91
2022-08-31T13:02:33.327Z,101647.09
2022-08-31T13:05:04.174Z,101641.19
2022-08-31T13:07:36.395Z,101638.91
2022-08-31T13:10:10.957Z,101629.03
2022-08-31T13:15:22.317Z,101624.31
2022-08-31T13:17:50.525Z,101630.81
2022-08-31T13:20:20.197Z,101634.34
2022-08-31T13:22:57.650Z,101630.72
2022-08-31T13:25:36.924Z,101622.06
2022-08-31T13:28:10.775Z,101624.69
2022-08-31T13:30:40.023Z,101616.09
2022-08-31T13:33:23.783Z,101612.41
2022-08-31T13:35:57.907Z,101617.47
2022-08-31T13:38:42.375Z,101620.03
2022-08-31T13:41:18.638Z,101602.78
2022-08-31T13:43:58.908Z,101586.00
2022-08-31T13:46:42.424Z,101614.19
2022-08-31T13:49:29.664Z,101610.28
2022-08-31T13:52:01.142Z,101606.63
2022-08-31T13:54:32.755Z,101610.34
2022-08-31T13:57:11.986Z,101602.34
2022-08-31T13:59:41.871Z,101600.69
2022-08-31T14:02:42.960Z,101592.78
2022-08-31T14:05:12.887Z,101590.94
2022-08-31T14:08:03.134Z,101600.81
2022-08-31T14:10:37.001Z,101595.16
2022-08-31T14:13:13.315Z,101597.06
2022-08-31T14:15:48.951Z,101591.09
2022-08-31T14:18:26.135Z,101590.34
2022-08-31T14:21:23.455Z,101596.06
2022-08-31T14:23:54.921Z,101585.81
2022-08-31T14:26:29.045Z,101588.97
2022-08-31T14:29:00.386Z,101589.94
2022-08-31T14:31:33.888Z,101585.00
2022-08-31T14:34:34.116Z,101583.31
2022-08-31T14:37:06.345Z,101580.38
2022-08-31T14:39:36.405Z,101571.84
2022-08-31T14:42:09.500Z,101586.13
2022-08-31T14:44:44.380Z,101575.25
2022-08-31T14:47:15.293Z,101572.69
2022-08-31T14:49:44.201Z,101573.53
2022-08-31T14:52:12.994Z,101566.53
2022-08-31T14:54:41.215Z,101561.22
2022-08-31T14:57:14.638Z,101563.25
2022-08-31T14:59:46.795Z,101561.44
2022-08-31T15:02:21.973Z,101560.41
2022-08-31T15:04:49.881Z,101560.56
2022-08-31T15:07:19.503Z,101561.63
2022-08-31T15:09:50.100Z,101561.38
2022-08-31T15:12:22.817Z,101568.72
2022-08-31T15:14:50.788Z,101566.47
2022-08-31T15:17:20.685Z,101562.50
2022-08-31T15:19:55.459Z,101557.69
2022-08-31T15:22:26.266Z,101558.66
2022-08-31T15:24:57.709Z,101553.88
2022-08-31T15:27:28.516Z,101553.06
2022-08-31T15:30:02.599Z,101550.13
2022-08-31T15:32:31.463Z,101552.53
2022-08-31T15:35:00.251Z,101543.63
2022-08-31T15:37:32.720Z,101544.38
2022-08-31T15:40:05.497Z,101551.97
2022-08-31T15:42:39.812Z,101553.72
2022-08-31T15:45:12.099Z,101557.94
2022-08-31T15:47:59.288Z,101534.25
2022-08-31T15:50:31.691Z,101541.34
2022-08-31T15:53:05.214Z,101541.25
2022-08-31T15:55:39.693Z,101552.22
2022-08-31T15:58:10.931Z,101547.59
2022-08-31T16:00:42.076Z,101541.66
2022-08-31T16:03:10.959Z,101547.47
2022-08-31T16:05:39.958Z,101542.81
2022-08-31T16:08:11.283Z,101541.75
2022-08-31T16:10:43.512Z,101537.50
2022-08-31T16:13:13.612Z,101536.44
2022-08-31T16:15:48.913Z,101537.69
2022-08-31T16:18:16.888Z,101533.66
2022-08-31T16:20:49.024Z,101532.34
2022-08-31T16:23:17.347Z,101529.78
2022-08-31T16:25:48.417Z,101512.94
2022-08-31T16:28:19.603Z,101530.63
2022-08-31T16:30:47.908Z,101523.66
2022-08-31T16:33:18.715Z,101507.72
2022-08-31T16:35:47.130Z,101515.41
2022-08-31T16:38:21.495Z,101514.44
2022-08-31T16:40:49.956Z,101516.41
2022-08-31T16:43:24.906Z,101492.19
2022-08-31T16:46:00.579Z,101518.00
2022-08-31T16:48:45.942Z,101519.78
2022-08-31T16:51:15.055Z,101519.59
2022-08-31T16:53:47.948Z,101521.06
2022-08-31T16:56:18.493Z,101525.94
2022-08-31T16:58:52.378Z,101527.50
2022-08-31T17:01:23.927Z,101529.44
2022-08-31T17:03:55.785Z,101519.59
2022-08-31T17:06:27.425Z,101521.88
2022-08-31T17:08:56.625Z,101535.53
2022-08-31T17:11:26.816Z,101526.78
2022-08-31T17:14:00.866Z,101525.69
2022-08-31T17:16:29.942Z,101528.66
2022-08-31T17:18:59.303Z,101533.56
2022-08-31T17:21:31.626Z,101523.13
2022-08-31T17:24:01.889Z,101524.72
2022-08-31T17:26:33.672Z,101527.06
2022-08-31T17:29:07.404Z,101536.34
2022-08-31T17:31:42.280Z,101543.72
2022-08-31T17:34:11.266Z,101533.88
2022-08-31T17:36:40.989Z,101543.78
2022-08-31T17:39:10.746Z,101535.59
2022-08-31T17:41:45.654Z,101538.41
2022-08-31T17:44:16.154Z,101527.44
2022-08-31T17:46:44.622Z,101547.03
2022-08-31T17:49:15.756Z,101549.06
2022-08-31T17:51:45.767Z,101549.34
2022-08-31T17:54:15.882Z,101548.13
2022-08-31T17:56:47.651Z,101552.06
2022-08-31T17:59:19.283Z,101549.97
2022-08-31T18:01:50.184Z,101544.31
2022-08-31T18:04:20.769Z,101542.31
2022-08-31T18:06:51.637Z,101549.81
2022-08-31T18:09:22.683Z,101551.94
2022-08-31T18:11:50.927Z,101548.94
2022-08-31T18:14:22.354Z,101560.53
2022-08-31T18:16:51.945Z,101566.22
2022-08-31T18:19:27.435Z,101562.19
2022-08-31T18:21:56.839Z,101566.75
2022-08-31T18:24:24.969Z,101568.31
2022-08-31T18:26:56.594Z,101557.34
2022-08-31T18:29:26.718Z,101574.63
2022-08-31T18:32:03.985Z,101574.44
2022-08-31T18:34:34.367Z,101581.00
2022-08-31T18:37:02.807Z,101578.19
2022-08-31T18:39:51.229Z,101587.56
2022-08-31T18:42:40.596Z,101586.09
2022-08-31T18:45:18.561Z,101587.09
2022-08-31T18:48:13.497Z,101586.53
2022-08-31T18:50:44.072Z,101580.31
2022-08-31T18:53:27.756Z,101598.41
2022-08-31T18:56:07.031Z,101581.50
2022-08-31T18:58:35.649Z,101594.28
2022-08-31T19:01:07.430Z,101586.31
2022-08-31T19:03:37.768Z,101590.16
2022-08-31T19:06:06.324Z,101592.34
2022-08-31T19:08:35.864Z,101591.88
2022-08-31T19:11:07.596Z,101595.78
2022-08-31T19:13:39.538Z,101592.66
2022-08-31T19:16:15.522Z,101591.81
2022-08-31T19:18:48.315Z,101590.69
2022-08-31T19:21:19.143Z,101592.03
2022-08-31T19:23:48.024Z,101583.19
2022-08-31T19:26:21.026Z,101593.53
2022-08-31T19:28:50.263Z,101593.94
2022-08-31T19:31:21.323Z,101595.47
2022-08-31T19:33:56.081Z,101603.66
2022-08-31T19:36:24.596Z,101603.19
2022-08-31T19:38:56.061Z,101610.47
2022-08-31T19:41:26.489Z,101603.22
2022-08-31T19:44:05.654Z,101608.84
2022-08-31T19:46:38.790Z,101603.28
2022-08-31T19:49:10.870Z,101587.00
2022-08-31T19:51:40.968Z,101602.38
2022-08-31T19:54:12.327Z,101607.47
2022-08-31T19:56:41.305Z,101611.56
2022-08-31T19:59:09.990Z,101605.56
2022-08-31T20:01:40.237Z,101600.97
2022-08-31T20:04:16.735Z,101611.44
2022-08-31T20:06:48.130Z,101606.09
2022-08-31T20:09:20.144Z,101607.63
2022-08-31T20:11:48.600Z,101610.56
2022-08-31T20:14:21.001Z,101610.25
2022-08-31T20:16:51.203Z,101609.38
2022-08-31T20:19:24.837Z,101610.91
2022-08-31T20:21:56.100Z,101601.91
2022-08-31T20:24:26.846Z,101609.16
2022-08-31T20:27:00.984Z,101608.16
2022-08-31T20:29:30.520Z,101611.22
2022-08-31T20:32:02.697Z,101616.19
2022-08-31T20:34:30.856Z,101611.59
2022-08-31T20:37:01.207Z,101606.16
2022-08-31T20:39:32.717Z,101624.50
2022-08-31T20:42:03.111Z,101617.38
2022-08-31T20:44:34.785Z,101618.91
2022-08-31T20:47:24.536Z,101613.53
2022-08-31T20:49:55.152Z,101611.53
2022-08-31T20:52:25.213Z,101618.41
2022-08-31T20:55:01.390Z,101612.56
2022-08-31T20:57:31.854Z,101617.78
2022-08-31T21:00:04.291Z,101617.00
2022-08-31T21:02:34.692Z,101619.31
2022-08-31T21:05:37.019Z,101601.09
2022-08-31T21:08:03.767Z,101623.50
2022-08-31T21:10:37.628Z,101614.06
2022-08-31T21:13:09.213Z,101617.63
2022-08-31T21:15:42.183Z,101630.22
2022-08-31T21:18:11.917Z,101621.56
2022-08-31T21:20:39.810Z,101616.75
2022-08-31T21:23:09.755Z,101626.16
2022-08-31T21:25:45.204Z,101619.56
2022-08-31T21:28:15.562Z,101626.91
2022-08-31T21:30:43.948Z,101623.09
2022-08-31T21:33:15.801Z,101637.22
2022-08-31T21:35:45.511Z,101635.81
2022-08-31T21:38:13.627Z,101639.63
2022-08-31T21:40:50.876Z,101639.34
2022-08-31T21:43:19.016Z,101637.66
2022-08-31T21:45:47.345Z,101640.22
2022-08-31T21:48:19.398Z,101647.72
2022-08-31T21:50:53.872Z,101649.22
2022-08-31T21:53:21.901Z,101648.38
2022-08-31T21:55:52.260Z,101652.28
2022-08-31T21:58:22.835Z,101655.19
2022-08-31T22:00:51.060Z,101656.56
2022-08-31T22:03:22.565Z,101659.59
2022-08-31T22:05:50.485Z,101669.53
2022-08-31T22:08:18.628Z,101670.00
2022-08-31T22:10:48.981Z,101663.91
2022-08-31T22:13:17.398Z,101657.53
2022-08-31T22:15:46.017Z,101659.75
2022-08-31T22:21:05.306Z,101675.38
2022-08-31T22:23:35.075Z,101672.44
2022-08-31T22:26:03.244Z,101676.22
2022-08-31T22:28:33.676Z,101668.94
2022-08-31T22:31:02.463Z,101671.34
2022-08-31T22:33:30.442Z,101669.31
2022-08-31T22:35:58.541Z,101680.97
2022-08-31T22:38:34.784Z,101675.63
2022-08-31T22:41:09.843Z,101677.16
2022-08-31T22:43:37.908Z,101682.72
2022-08-31T22:46:07.135Z,101682.28
2022-08-31T22:48:37.225Z,101677.56
2022-08-31T22:51:05.679Z,101682.25
2022-08-31T22:53:35.184Z,101683.47
2022-08-31T22:56:05.222Z,101674.69
2022-08-31T22:58:33.051Z,101685.59
2022-08-31T23:01:01.035Z,101675.28
2022-08-31T23:03:30.761Z,101673.25
2022-08-31T23:06:07.620Z,101670.72
2022-08-31T23:08:38.014Z,101672.06
2022-08-31T23:11:06.044Z,101664.91
2022-08-31T23:13:51.131Z,101681.81
2022-08-31T23:16:26.986Z,101676.31
2022-08-31T23:18:57.653Z,101650.72
2022-08-31T23:21:27.604Z,101670.06
2022-08-31T23:24:00.165Z,101675.75
2022-08-31T23:26:30.579Z,101655.88
2022-08-31T23:29:05.385Z,101660.47
2022-08-31T23:31:34.099Z,101672.25
2022-08-31T23:34:04.152Z,101643.06
2022-08-31T23:36:32.174Z,101660.81
2022-08-31T23:39:05.648Z,101632.06
2022-08-31T23:41:38.904Z,101660.03
2022-08-31T23:44:09.277Z,101651.13
2022-08-31T23:46:39.157Z,101665.31
2022-08-31T23:49:10.685Z,101659.84
2022-08-31T23:51:39.395Z,101663.72
2022-08-31T23:54:10.545Z,101666.75
2022-08-31T23:56:41.817Z,101662.88
2022-08-31T23:59:18.128Z,101663.66
